< < Back
Terminal Aerodrome Forecast


Current Version              Previous Versions:   1  2  3  4  5  6  7  8  9  

Terminal Aerodrome Forecast

781
FTUS42 KCAE 260244 AAB
TAFCAE
TAF AMD
KCAE 260244Z 2603/2624 19005KT P6SM FEW150
     FM261500 22006KT P6SM SCT060=

Latest METAR

237
SAUS80 KWBC 261600
MTRCAE
METAR KCAE 261556Z 19005KT 10SM FEW040 34/22 A3003 RMK AO2 SLP165
T03440222


USA.gov is the U.S. government's official web portal to all federal, state and local government web resources and services.